Time;durP1;ratioP1;P1;durP2;ratioP2;P2;SDS_P1;SDS_P2;PMS_P1;PMS_P2;Temp;Humidity;BMP_temperature;BMP_pressure;BME280_temperature;BME280_humidity;BME280_pressure;Samples;Min_cycle;Max_cycle;Signal;HPM_P1;HPM_P2
2020/12/02 00:02:24;;;;;;;2.23;0.50;;;;;;;6.06;100.00;101721.03;5006983;28;20431;-80
2020/12/02 00:04:52;;;;;;;4.17;1.10;;;;;;;6.00;100.00;101728.38;5014455;28;20214;-79
2020/12/02 00:07:19;;;;;;;3.30;0.80;;;;;;;6.01;100.00;101716.59;5012847;28;20493;-82
2020/12/02 00:09:44;;;;;;;3.80;0.97;;;;;;;6.06;100.00;101727.19;5011544;28;20439;-79
2020/12/02 00:12:10;;;;;;;4.90;1.13;;;;;;;6.07;100.00;101727.97;5015295;28;20477;-81
2020/12/02 00:14:35;;;;;;;4.87;1.27;;;;;;;6.09;100.00;101725.78;5010605;28;20177;-78
2020/12/02 00:17:01;;;;;;;3.90;1.20;;;;;;;6.10;100.00;101727.38;5015131;28;20220;-82
2020/12/02 00:19:26;;;;;;;2.13;0.60;;;;;;;6.08;100.00;101727.66;5012180;28;20196;-79
2020/12/02 00:22:09;;;;;;;5.23;1.10;;;;;;;5.99;100.00;101726.00;5012444;28;20267;-82
2020/12/02 00:24:35;;;;;;;6.20;1.33;;;;;;;6.05;100.00;101730.16;5014250;28;20185;-81
2020/12/02 00:27:07;;;;;;;4.70;1.20;;;;;;;6.02;100.00;101720.84;5014929;28;20463;-81
2020/12/02 00:29:33;;;;;;;5.77;1.30;;;;;;;6.07;100.00;101726.09;5008567;28;20469;-81
2020/12/02 00:31:59;;;;;;;2.23;0.67;;;;;;;6.06;100.00;101727.19;5012582;28;20606;-80
2020/12/02 00:34:24;;;;;;;3.27;0.93;;;;;;;6.04;100.00;101725.91;5014745;28;20454;-80
2020/12/02 00:36:50;;;;;;;5.23;1.17;;;;;;;6.04;100.00;101728.59;5011250;28;20247;-82
2020/12/02 00:39:15;;;;;;;2.70;0.87;;;;;;;6.04;100.00;101723.25;5059206;22;20262;-79
2020/12/02 00:41:41;;;;;;;3.20;0.93;;;;;;;6.01;100.00;101729.16;5030592;28;20656;-79
2020/12/02 00:44:07;;;;;;;5.83;1.73;;;;;;;5.97;100.00;101730.84;5018996;28;20652;-79
2020/12/02 00:46:33;;;;;;;3.60;1.20;;;;;;;5.98;100.00;101727.88;5032763;28;20187;-79
2020/12/02 00:48:59;;;;;;;7.77;1.50;;;;;;;6.00;100.00;101723.00;5034147;28;20458;-79
2020/12/02 00:51:25;;;;;;;3.03;0.80;;;;;;;6.07;100.00;101730.66;5009521;28;20463;-78
2020/12/02 00:53:51;;;;;;;4.90;1.10;;;;;;;6.07;100.00;101734.13;5011878;28;20180;-76
2020/12/02 00:56:20;;;;;;;3.57;1.30;;;;;;;6.08;100.00;101726.88;5005338;28;20450;-79
2020/12/02 00:58:57;;;;;;;2.93;0.67;;;;;;;6.01;100.00;101729.16;5000455;28;20207;-79
2020/12/02 01:01:46;;;;;;;4.50;1.23;;;;;;;6.01;100.00;101731.84;4999211;28;20448;-77
2020/12/02 01:04:18;;;;;;;4.70;1.27;;;;;;;6.00;100.00;101727.59;4996642;28;20461;-79
2020/12/02 01:06:45;;;;;;;3.77;1.00;;;;;;;6.04;100.00;101725.91;5012055;28;21026;-79
2020/12/02 01:09:12;;;;;;;3.00;1.00;;;;;;;5.94;100.00;101739.47;5023577;28;20543;-78
2020/12/02 01:11:38;;;;;;;5.40;1.83;;;;;;;5.94;100.00;101726.09;5009710;28;20459;-77
2020/12/02 01:14:08;;;;;;;5.63;1.60;;;;;;;5.99;100.00;101723.31;5009900;28;20451;-77
2020/12/02 01:16:40;;;;;;;5.87;1.70;;;;;;;5.97;100.00;101728.16;5008421;28;21113;-77
2020/12/02 01:19:09;;;;;;;3.97;1.13;;;;;;;5.92;100.00;101725.59;5017973;28;20495;-77
2020/12/02 01:21:49;;;;;;;3.93;0.80;;;;;;;5.92;100.00;101723.69;5024163;28;20444;-78
2020/12/02 01:24:21;;;;;;;4.00;1.20;;;;;;;5.94;100.00;101728.78;4991347;28;20443;-77
2020/12/02 01:27:13;;;;;;;5.60;1.57;;;;;;;5.92;100.00;101728.28;5007835;28;20443;-77
2020/12/02 01:30:00;;;;;;;6.00;1.20;;;;;;;5.91;100.00;101726.69;4977482;28;20983;-77
2020/12/02 01:32:25;;;;;;;2.70;0.80;;;;;;;5.95;100.00;101728.47;4953672;29;21013;-78
2020/12/02 01:34:53;;;;;;;5.77;2.30;;;;;;;5.95;100.00;101716.97;4952720;29;20485;-77
2020/12/02 01:37:34;;;;;;;3.47;1.17;;;;;;;6.00;100.00;101727.59;4951104;29;20226;-77
2020/12/02 01:40:19;;;;;;;4.70;1.30;;;;;;;5.98;100.00;101711.06;4951369;29;20452;-78
2020/12/02 01:42:48;;;;;;;4.40;1.30;;;;;;;5.98;100.00;101722.53;4937649;29;20446;-77
2020/12/02 01:45:27;;;;;;;5.70;1.10;;;;;;;5.95;100.00;101715.09;4930125;29;20445;-77
2020/12/02 01:48:26;;;;;;;3.73;1.03;;;;;;;5.90;100.00;101712.53;4951844;28;20847;-78
2020/12/02 01:51:04;;;;;;;3.90;0.97;;;;;;;5.94;100.00;101707.38;4952771;29;21029;-77
2020/12/02 01:53:51;;;;;;;4.00;1.27;;;;;;;5.94;100.00;101712.75;4952573;29;20540;-78
2020/12/02 01:56:19;;;;;;;3.50;1.37;;;;;;;5.95;100.00;101704.41;4953217;29;20446;-77
2020/12/02 01:59:18;;;;;;;5.13;0.87;;;;;;;5.89;100.00;101707.47;4951800;28;20466;-78
2020/12/02 02:01:59;;;;;;;3.63;0.93;;;;;;;5.95;100.00;101703.63;4935895;29;20442;-77
2020/12/02 02:04:37;;;;;;;4.60;1.37;;;;;;;5.89;100.00;101707.47;4951372;29;20445;-78
2020/12/02 02:07:08;;;;;;;3.50;0.93;;;;;;;5.92;100.00;101701.56;4947695;29;20548;-77
2020/12/02 02:09:34;;;;;;;4.27;1.30;;;;;;;5.93;100.00;101701.25;4985435;28;20459;-77
2020/12/02 02:12:25;;;;;;;3.20;0.97;;;;;;;5.89;100.00;101694.09;5013918;28;20521;-77
2020/12/02 02:15:09;;;;;;;3.20;0.90;;;;;;;5.86;100.00;101694.72;5010658;28;20445;-78
2020/12/02 02:17:34;;;;;;;5.03;1.23;;;;;;;5.89;100.00;101699.44;5011403;28;20439;-77
2020/12/02 02:20:00;;;;;;;4.87;1.10;;;;;;;5.90;100.00;101693.84;5009993;28;20514;-78
2020/12/02 02:22:26;;;;;;;4.17;1.30;;;;;;;5.90;100.00;101696.50;4995490;28;20176;-77
2020/12/02 02:24:52;;;;;;;4.30;1.40;;;;;;;5.90;100.00;101690.38;5007435;28;20238;-78
2020/12/02 02:27:22;;;;;;;5.13;1.47;;;;;;;5.91;100.00;101691.94;5011010;28;20173;-78
2020/12/02 02:30:08;;;;;;;3.63;1.20;;;;;;;5.94;100.00;101686.00;5010924;28;20467;-78
2020/12/02 02:32:34;;;;;;;4.20;1.17;;;;;;;5.92;100.00;101693.53;4971756;28;20457;-78
2020/12/02 02:35:00;;;;;;;4.70;1.10;;;;;;;5.93;100.00;101679.06;4987180;28;20436;-78
2020/12/02 02:37:29;;;;;;;3.37;1.03;;;;;;;5.90;100.00;101682.34;4990774;28;20482;-78
2020/12/02 02:39:55;;;;;;;2.53;0.77;;;;;;;5.86;100.00;101681.34;4971858;28;20480;-78
2020/12/02 02:42:38;;;;;;;4.53;1.20;;;;;;;5.86;100.00;101676.81;4990890;28;20499;-77
2020/12/02 02:45:25;;;;;;;3.10;0.90;;;;;;;5.85;100.00;101677.88;4973177;28;20451;-78
2020/12/02 02:47:56;;;;;;;3.73;1.10;;;;;;;5.77;100.00;101681.22;4985309;28;20471;-78
2020/12/02 02:50:23;;;;;;;3.60;0.70;;;;;;;5.85;100.00;101674.41;4980122;28;21019;-78
2020/12/02 02:52:50;;;;;;;5.83;1.13;;;;;;;5.73;100.00;101668.75;4988077;28;20527;-77
2020/12/02 02:55:21;;;;;;;4.00;1.03;;;;;;;5.77;100.00;101667.84;4988967;28;20643;-78
2020/12/02 02:57:47;;;;;;;3.13;0.90;;;;;;;5.75;100.00;101666.59;4990141;28;20455;-77
2020/12/02 03:00:19;;;;;;;5.80;1.50;;;;;;;5.64;100.00;101671.31;4971458;28;20452;-78
2020/12/02 03:02:45;;;;;;;5.63;1.50;;;;;;;5.76;100.00;101662.81;4988313;28;20812;-78
2020/12/02 03:05:11;;;;;;;4.60;1.03;;;;;;;5.82;100.00;101672.31;4971666;28;20429;-77
2020/12/02 03:07:39;;;;;;;6.60;1.80;;;;;;;5.85;100.00;101666.38;4991149;28;20189;-77
2020/12/02 03:10:05;;;;;;;2.80;0.90;;;;;;;5.87;100.00;101673.03;4997838;28;20208;-78
2020/12/02 03:12:31;;;;;;;4.37;1.30;;;;;;;5.80;100.00;101663.81;5009493;28;20436;-78
2020/12/02 03:14:58;;;;;;;3.80;1.07;;;;;;;5.84;100.00;101670.16;5003660;28;20188;-78
2020/12/02 03:17:44;;;;;;;5.40;1.23;;;;;;;5.85;100.00;101666.38;5010696;28;20457;-78
2020/12/02 03:20:24;;;;;;;6.27;1.60;;;;;;;5.87;100.00;101664.22;4967579;28;20445;-77
2020/12/02 03:22:49;;;;;;;4.63;1.03;;;;;;;5.88;100.00;101669.28;4947455;28;20445;-78
2020/12/02 03:25:23;;;;;;;5.10;1.40;;;;;;;5.87;100.00;101670.34;4968882;28;20817;-78
2020/12/02 03:27:49;;;;;;;3.30;1.20;;;;;;;5.86;100.00;101674.13;4938357;28;20196;-77
2020/12/02 03:30:17;;;;;;;3.27;1.27;;;;;;;5.87;100.00;101662.34;4966689;28;21029;-77
2020/12/02 03:32:43;;;;;;;3.63;1.00;;;;;;;5.87;100.00;101665.00;4970609;28;20858;-77
2020/12/02 03:35:09;;;;;;;4.27;0.97;;;;;;;5.87;100.00;101664.22;4966300;28;20433;-78
2020/12/02 03:37:55;;;;;;;2.17;0.70;;;;;;;5.90;100.00;101666.31;4969203;28;21109;-77
2020/12/02 03:40:20;;;;;;;2.73;0.90;;;;;;;5.88;100.00;101655.13;4948658;29;20203;-78
2020/12/02 03:42:46;;;;;;;6.00;1.33;;;;;;;5.86;100.00;101663.44;4933508;29;20874;-77
2020/12/02 03:45:11;;;;;;;4.43;1.17;;;;;;;5.89;100.00;101662.84;4952857;28;20203;-78
2020/12/02 03:47:37;;;;;;;4.50;1.30;;;;;;;5.90;100.00;101658.28;4932516;28;20183;-77
2020/12/02 03:50:09;;;;;;;4.40;1.20;;;;;;;5.85;100.00;101661.03;4948356;28;20203;-78
2020/12/02 03:52:35;;;;;;;5.43;0.97;;;;;;;5.83;100.00;101660.53;4930036;29;20455;-77
2020/12/02 03:55:00;;;;;;;4.53;0.97;;;;;;;5.86;100.00;101660.78;4946431;28;20624;-77
2020/12/02 03:57:26;;;;;;;4.57;0.87;;;;;;;5.86;100.00;101663.44;4954929;28;20283;-78
2020/12/02 03:59:51;;;;;;;6.57;1.33;;;;;;;5.82;100.00;101654.41;4967870;28;20209;-78
2020/12/02 04:02:17;;;;;;;3.27;1.10;;;;;;;5.81;100.00;101650.13;4970468;28;20201;-77
2020/12/02 04:04:42;;;;;;;3.90;1.20;;;;;;;5.87;100.00;101648.19;4967519;28;20194;-77
2020/12/02 04:07:08;;;;;;;4.70;1.00;;;;;;;5.85;100.00;101661.84;4971855;28;20739;-77
2020/12/02 04:09:34;;;;;;;5.57;1.10;;;;;;;5.86;100.00;101649.28;4968114;28;20646;-77
2020/12/02 04:11:59;;;;;;;2.90;0.80;;;;;;;5.79;100.00;101646.97;4971503;28;20206;-78
2020/12/02 04:14:26;;;;;;;3.40;0.97;;;;;;;5.75;100.00;101645.97;4959414;28;20913;-77
2020/12/02 04:16:51;;;;;;;3.20;1.07;;;;;;;5.83;100.00;101642.66;4978227;28;20506;-77
2020/12/02 04:19:17;;;;;;;4.63;1.43;;;;;;;5.86;100.00;101642.06;5013714;28;20213;-77
2020/12/02 04:21:42;;;;;;;3.00;0.80;;;;;;;5.88;100.00;101647.09;5010928;28;20181;-78
2020/12/02 04:24:08;;;;;;;2.23;0.70;;;;;;;5.89;100.00;101641.47;5007373;28;20216;-77
2020/12/02 04:26:33;;;;;;;3.90;0.90;;;;;;;5.89;100.00;101637.97;5007337;28;20179;-78
2020/12/02 04:28:59;;;;;;;4.50;1.40;;;;;;;5.86;100.00;101638.59;5005962;28;20196;-78
2020/12/02 04:31:24;;;;;;;3.77;1.27;;;;;;;5.81;100.00;101633.31;5011556;28;20205;-78
2020/12/02 04:33:50;;;;;;;2.90;1.00;;;;;;;5.86;100.00;101630.56;5022719;28;20189;-77
2020/12/02 04:36:15;;;;;;;3.10;1.00;;;;;;;5.82;100.00;101627.69;5010633;28;20184;-77
2020/12/02 04:38:41;;;;;;;5.30;1.73;;;;;;;5.66;100.00;101625.59;5010327;28;20223;-78
2020/12/02 04:41:15;;;;;;;3.70;0.97;;;;;;;5.75;100.00;101635.28;5003646;28;20185;-78
2020/12/02 04:43:43;;;;;;;5.53;1.30;;;;;;;5.75;100.00;101623.84;5008415;28;20180;-78
2020/12/02 04:46:14;;;;;;;6.93;1.80;;;;;;;5.72;100.00;101621.75;5009769;28;20535;-79
2020/12/02 04:48:41;;;;;;;3.60;1.27;;;;;;;5.78;100.00;101628.56;5008768;28;21000;-79
2020/12/02 04:51:18;;;;;;;2.67;0.80;;;;;;;5.77;100.00;101627.00;5008689;28;20982;-79
2020/12/02 04:53:47;;;;;;;4.00;0.90;;;;;;;5.85;100.00;101620.97;5008422;28;20951;-78
2020/12/02 04:56:13;;;;;;;3.80;1.40;;;;;;;5.80;100.00;101624.50;5004666;28;20904;-79
2020/12/02 04:58:40;;;;;;;4.30;1.10;;;;;;;5.81;100.00;101630.63;5010436;28;20498;-79
2020/12/02 05:01:42;;;;;;;2.73;0.60;;;;;;;5.73;100.00;101634.78;5020307;28;20184;-79
2020/12/02 05:04:25;;;;;;;4.50;1.40;;;;;;;5.69;100.00;101627.69;5006527;28;20475;-79
2020/12/02 05:07:15;;;;;;;3.63;0.90;;;;;;;5.79;100.00;101628.25;5004523;28;20533;-79
2020/12/02 05:10:15;;;;;;;3.13;0.80;;;;;;;5.65;100.00;101621.34;5030173;28;20994;-79
2020/12/02 05:12:46;;;;;;;3.13;0.90;;;;;;;5.59;100.00;101617.19;4991032;28;20534;-79
2020/12/02 05:15:21;;;;;;;3.30;0.73;;;;;;;5.56;100.00;101612.44;5010802;28;20447;-79
2020/12/02 05:18:04;;;;;;;3.47;0.80;;;;;;;5.59;100.00;101617.19;5014729;28;20447;-79
2020/12/02 05:20:30;;;;;;;4.00;1.10;;;;;;;5.63;100.00;101619.00;5010518;28;20443;-79
2020/12/02 05:22:56;;;;;;;3.07;1.07;;;;;;;5.62;100.00;101625.41;5015248;28;20439;-79
2020/12/02 05:25:24;;;;;;;3.70;0.83;;;;;;;5.55;100.00;101619.69;5015194;28;20475;-79
2020/12/02 05:28:01;;;;;;;2.97;0.90;;;;;;;5.57;100.00;101620.16;5010245;28;20184;-79
2020/12/02 05:30:49;;;;;;;3.03;0.73;;;;;;;5.64;100.00;101617.88;5023451;28;20477;-79
2020/12/02 05:33:19;;;;;;;5.10;1.10;;;;;;;5.59;100.00;101617.19;4993180;28;20454;-79
2020/12/02 05:36:13;;;;;;;3.27;1.10;;;;;;;5.53;100.00;101614.59;4995991;28;20541;-79
2020/12/02 05:38:51;;;;;;;3.77;1.20;;;;;;;5.61;100.00;101613.16;4960411;28;20472;-79
2020/12/02 05:41:17;;;;;;;3.57;1.10;;;;;;;5.63;100.00;101607.50;4973968;28;20444;-79
2020/12/02 05:43:56;;;;;;;5.20;1.33;;;;;;;5.69;100.00;101614.34;4987222;28;20440;-79
2020/12/02 05:46:29;;;;;;;3.20;0.87;;;;;;;5.66;100.00;101617.59;4984540;28;20444;-79
2020/12/02 05:49:22;;;;;;;3.87;1.10;;;;;;;5.66;100.00;101610.38;4989207;28;20472;-79
2020/12/02 05:51:51;;;;;;;3.90;0.90;;;;;;;5.64;100.00;101611.75;4990800;28;20465;-80
2020/12/02 05:54:20;;;;;;;3.10;0.90;;;;;;;5.63;100.00;101624.34;4980581;28;20448;-79
2020/12/02 05:56:46;;;;;;;2.50;0.90;;;;;;;5.66;100.00;101620.25;4959345;28;20441;-79
2020/12/02 05:59:12;;;;;;;4.67;1.53;;;;;;;5.62;100.00;101609.38;4962194;28;20470;-79
2020/12/02 06:01:38;;;;;;;2.80;1.03;;;;;;;5.64;100.00;101609.06;4991178;28;20482;-79
2020/12/02 06:04:08;;;;;;;4.30;1.03;;;;;;;5.55;100.00;101611.66;4953372;28;20197;-79
2020/12/02 06:06:33;;;;;;;2.83;0.90;;;;;;;5.55;100.00;101613.53;4980032;28;20440;-79
2020/12/02 06:09:00;;;;;;;5.50;1.20;;;;;;;5.53;100.00;101607.69;4983121;28;20554;-79
2020/12/02 06:11:32;;;;;;;3.47;0.87;;;;;;;5.61;100.00;101613.16;5011853;28;20495;-79
2020/12/02 06:13:59;;;;;;;4.57;1.23;;;;;;;5.66;100.00;101609.56;5002042;28;20561;-79
2020/12/02 06:16:24;;;;;;;5.77;1.60;;;;;;;5.61;100.00;101609.69;5009591;28;20784;-79
2020/12/02 06:18:50;;;;;;;4.13;1.37;;;;;;;5.65;100.00;101608.00;5016579;28;20467;-79
2020/12/02 06:21:45;;;;;;;4.20;1.30;;;;;;;5.65;100.00;101605.31;5012956;28;20191;-79
2020/12/02 06:24:22;;;;;;;3.10;0.80;;;;;;;5.58;100.00;101599.56;5017752;28;20186;-79
2020/12/02 06:26:48;;;;;;;4.40;1.20;;;;;;;5.56;100.00;101599.06;5015738;28;20439;-79
2020/12/02 06:29:25;;;;;;;3.40;0.80;;;;;;;5.60;100.00;101605.41;5014011;28;20473;-79
2020/12/02 06:31:58;;;;;;;3.87;1.20;;;;;;;5.69;100.00;101599.06;5013035;28;20204;-79
2020/12/02 06:34:46;;;;;;;3.80;1.37;;;;;;;5.59;100.00;101598.50;5012788;28;20439;-78
2020/12/02 06:37:15;;;;;;;4.00;0.70;;;;;;;5.64;100.00;101603.72;4973255;28;20985;-79
2020/12/02 06:39:58;;;;;;;5.47;1.70;;;;;;;5.63;100.00;101602.97;4949716;28;20560;-80
2020/12/02 06:42:41;;;;;;;5.03;1.20;;;;;;;5.64;100.00;101607.19;4964685;28;20521;-80
2020/12/02 06:45:30;;;;;;;4.00;0.77;;;;;;;5.63;100.00;101602.97;4969440;28;20459;-80
2020/12/02 06:48:02;;;;;;;4.90;1.77;;;;;;;5.67;100.00;101597.81;4941899;28;20480;-80
2020/12/02 06:50:33;;;;;;;3.80;1.40;;;;;;;5.69;100.00;101595.63;4950945;28;20465;-80
2020/12/02 06:53:30;;;;;;;2.37;0.50;;;;;;;5.66;100.00;101597.00;4957621;28;20919;-80
2020/12/02 06:56:03;;;;;;;4.40;1.07;;;;;;;5.66;100.00;101599.69;4945178;28;20914;-80
2020/12/02 06:58:28;;;;;;;2.93;0.60;;;;;;;5.66;100.00;101597.00;4969540;28;20471;-80
2020/12/02 07:01:03;;;;;;;4.10;1.33;;;;;;;5.71;100.00;101599.56;4970516;28;20528;-80
2020/12/02 07:03:31;;;;;;;3.57;1.20;;;;;;;5.78;100.00;101605.31;4950099;28;20373;-80
2020/12/02 07:06:09;;;;;;;3.30;1.03;;;;;;;5.67;100.00;101611.16;4958193;28;20981;-81
2020/12/02 07:08:37;;;;;;;3.83;1.00;;;;;;;5.72;100.00;101609.19;4965697;28;21051;-80
2020/12/02 07:11:11;;;;;;;3.43;1.00;;;;;;;5.76;100.00;101609.38;4962765;28;21517;-80
2020/12/02 07:13:43;;;;;;;6.20;1.43;;;;;;;5.71;100.00;101601.47;4981896;28;20488;-80
2020/12/02 07:16:27;;;;;;;2.40;0.70;;;;;;;5.73;100.00;101605.41;5005814;28;20567;-80
2020/12/02 07:19:09;;;;;;;3.67;1.10;;;;;;;5.76;100.00;101599.47;5008955;28;20474;-80
2020/12/02 07:21:50;;;;;;;2.77;0.70;;;;;;;5.71;100.00;101606.81;5003626;28;20446;-80
2020/12/02 07:24:32;;;;;;;3.30;0.87;;;;;;;5.70;100.00;101589.97;5019807;28;20435;-80
2020/12/02 07:26:57;;;;;;;4.70;1.13;;;;;;;5.72;100.00;101593.16;5012485;28;20436;-80
2020/12/02 07:29:26;;;;;;;2.93;1.07;;;;;;;5.74;100.00;101588.28;5008830;28;20470;-80
2020/12/02 07:31:58;;;;;;;4.10;0.90;;;;;;;5.61;100.00;101585.63;5011079;28;20247;-80
2020/12/02 07:34:25;;;;;;;4.53;1.27;;;;;;;5.65;100.00;101578.63;4991678;28;22260;-80
2020/12/02 07:36:58;;;;;;;3.80;1.23;;;;;;;5.68;100.00;101578.81;5018160;28;20420;-80
2020/12/02 07:39:25;;;;;;;2.73;0.70;;;;;;;5.74;100.00;101585.63;5013893;28;20470;-80
2020/12/02 07:42:01;;;;;;;2.77;0.80;;;;;;;5.76;100.00;101590.66;5011530;28;20444;-80
2020/12/02 07:44:34;;;;;;;2.80;0.77;;;;;;;5.75;100.00;101581.06;5024882;28;20452;-80
2020/12/02 07:47:06;;;;;;;3.30;1.00;;;;;;;5.77;100.00;101578.91;5010216;28;20468;-79
2020/12/02 07:49:34;;;;;;;3.37;1.00;;;;;;;5.70;100.00;101583.84;5010966;28;20494;-80
2020/12/02 07:52:15;;;;;;;4.03;0.90;;;;;;;5.67;100.00;101579.09;5009570;28;20479;-80
2020/12/02 07:54:41;;;;;;;3.27;1.20;;;;;;;5.69;100.00;101575.03;5006581;28;20435;-80
2020/12/02 07:57:12;;;;;;;3.00;0.90;;;;;;;5.71;100.00;101578.19;5008717;28;20451;-80
2020/12/02 07:59:45;;;;;;;3.20;0.90;;;;;;;5.68;100.00;101570.00;5008051;28;20690;-80
2020/12/02 08:02:16;;;;;;;6.03;1.00;;;;;;;5.76;100.00;101580.78;5016071;28;20821;-80
2020/12/02 08:04:47;;;;;;;2.23;0.60;;;;;;;5.68;100.00;101570.78;5007890;28;20454;-79
2020/12/02 08:07:33;;;;;;;3.53;1.07;;;;;;;5.62;100.00;101571.97;5002884;28;20751;-80
2020/12/02 08:09:59;;;;;;;2.47;0.57;;;;;;;5.64;100.00;101563.66;4934733;29;20466;-80
2020/12/02 08:12:25;;;;;;;4.27;1.30;;;;;;;5.64;100.00;101574.34;4950567;28;20536;-80
2020/12/02 08:15:07;;;;;;;3.40;0.77;;;;;;;5.58;100.00;101570.19;4933233;29;20562;-80
2020/12/02 08:17:41;;;;;;;4.67;1.00;;;;;;;5.59;100.00;101566.44;4947652;28;20273;-79
2020/12/02 08:20:43;;;;;;;4.90;1.50;;;;;;;5.58;100.00;101551.50;4941493;29;20443;-79
2020/12/02 08:23:35;;;;;;;2.97;0.83;;;;;;;5.59;100.00;101561.91;4874351;29;20908;-79
2020/12/02 08:26:18;;;;;;;3.10;0.70;;;;;;;5.60;100.00;101549.31;4928739;29;20994;-80
2020/12/02 08:28:45;;;;;;;4.07;1.10;;;;;;;5.58;100.00;101556.84;4943404;28;21036;-79
2020/12/02 08:31:26;;;;;;;3.70;1.33;;;;;;;5.58;100.00;101548.81;4948272;29;21037;-79
2020/12/02 08:34:23;;;;;;;4.07;1.17;;;;;;;5.53;100.00;101557.75;4943553;29;20486;-81
2020/12/02 08:37:11;;;;;;;3.40;1.07;;;;;;;5.60;100.00;101549.31;4933724;29;20493;-80
2020/12/02 08:39:43;;;;;;;5.30;1.30;;;;;;;5.57;100.00;101541.91;4935535;29;21068;-80
2020/12/02 08:42:21;;;;;;;4.00;1.27;;;;;;;5.58;100.00;101541.59;4949565;29;20446;-80
2020/12/02 08:45:23;;;;;;;3.93;1.00;;;;;;;5.52;100.00;101532.13;4953785;28;20943;-80
2020/12/02 08:47:56;;;;;;;3.87;1.00;;;;;;;5.40;100.00;101531.84;4980844;28;20504;-84
2020/12/02 08:50:30;;;;;;;2.93;0.80;;;;;;;5.32;100.00;101519.97;4992579;28;20451;-82
2020/12/02 08:52:58;;;;;;;2.53;0.70;;;;;;;5.34;100.00;101517.00;5013839;28;20963;-81
2020/12/02 08:55:25;;;;;;;3.53;1.20;;;;;;;5.38;100.00;101524.13;5008711;28;20432;-81
2020/12/02 08:57:51;;;;;;;3.80;1.27;;;;;;;5.17;100.00;101527.47;5012485;28;20455;-80
2020/12/02 09:00:18;;;;;;;3.27;1.17;;;;;;;5.03;100.00;101522.13;5011017;28;20447;-80
2020/12/02 09:02:43;;;;;;;3.77;1.13;;;;;;;5.18;100.00;101524.53;5010683;28;20444;-80
2020/12/02 09:05:10;;;;;;;3.00;0.80;;;;;;;5.18;100.00;101537.88;5006815;28;20436;-79
2020/12/02 09:07:36;;;;;;;3.13;0.90;;;;;;;5.20;100.00;101532.25;5009653;28;20208;-81
2020/12/02 09:10:04;;;;;;;5.57;1.00;;;;;;;5.26;100.00;101521.19;5009509;28;20494;-80
2020/12/02 09:12:29;;;;;;;3.30;1.00;;;;;;;5.26;100.00;101521.19;5017647;28;20208;-80
2020/12/02 09:14:55;;;;;;;2.20;0.80;;;;;;;5.33;100.00;101526.91;5009000;28;20509;-80
2020/12/02 09:17:20;;;;;;;3.47;0.60;;;;;;;5.28;100.00;101512.88;5012658;28;20188;-80
2020/12/02 09:19:46;;;;;;;4.77;1.30;;;;;;;5.11;100.00;101518.00;5017402;28;20192;-80
2020/12/02 09:22:11;;;;;;;5.00;1.20;;;;;;;5.21;100.00;101515.91;5005480;28;20193;-81
2020/12/02 09:24:37;;;;;;;4.70;1.20;;;;;;;5.05;100.00;101519.97;5009666;28;20234;-83
2020/12/02 09:27:03;;;;;;;2.90;0.87;;;;;;;5.12;100.00;101509.69;5015236;28;20192;-80
2020/12/02 09:29:28;;;;;;;4.70;1.03;;;;;;;5.12;100.00;101508.91;5011067;28;20723;-80
2020/12/02 09:31:54;;;;;;;3.70;0.97;;;;;;;5.01;100.00;101508.31;5026817;28;20343;-79
2020/12/02 09:34:19;;;;;;;2.80;0.67;;;;;;;4.86;100.00;101500.59;5014832;28;20710;-81
2020/12/02 09:36:46;;;;;;;3.27;1.10;;;;;;;5.06;100.00;101502.06;5018842;28;20181;-82
2020/12/02 09:39:14;;;;;;;4.50;1.70;;;;;;;5.16;100.00;101502.69;5008551;28;20219;-81
2020/12/02 09:42:09;;;;;;;3.60;1.53;;;;;;;5.10;100.00;101503.88;5028882;28;20439;-81
2020/12/02 09:44:45;;;;;;;3.10;0.90;;;;;;;5.20;100.00;101500.22;4998133;28;20509;-81
2020/12/02 09:47:15;;;;;;;6.17;1.33;;;;;;;5.20;100.00;101494.88;5020819;28;20818;-80
2020/12/02 09:49:44;;;;;;;2.87;0.97;;;;;;;5.24;100.00;101485.19;5015219;28;20458;-83
2020/12/02 09:52:17;;;;;;;2.97;0.70;;;;;;;5.37;100.00;101477.16;5011322;28;20464;-82
2020/12/02 09:54:44;;;;;;;3.57;1.00;;;;;;;5.30;100.00;101479.41;5012171;28;20447;-82
2020/12/02 09:57:16;;;;;;;3.57;1.23;;;;;;;5.37;100.00;101471.00;5017707;28;20518;-82
2020/12/02 09:59:42;;;;;;;3.00;0.73;;;;;;;5.22;100.00;101472.13;4997945;28;21057;-80
2020/12/02 10:02:28;;;;;;;3.07;1.00;;;;;;;5.02;100.00;101461.84;5004171;28;20827;-80
2020/12/02 10:05:12;;;;;;;4.13;1.43;;;;;;;5.10;100.00;101461.16;5017829;28;20533;-81
2020/12/02 10:07:59;;;;;;;2.80;0.60;;;;;;;5.16;100.00;101462.66;5050542;22;20545;-81
2020/12/02 10:10:42;;;;;;;3.37;1.10;;;;;;;5.08;100.00;101444.66;4994370;28;20448;-82
2020/12/02 10:13:29;;;;;;;4.17;1.20;;;;;;;5.18;100.00;101443.66;4997465;28;20452;-83
2020/12/02 10:16:19;;;;;;;4.13;1.70;;;;;;;5.21;100.00;101437.69;4995609;28;20459;-84
2020/12/02 10:19:19;;;;;;;4.13;1.40;;;;;;;5.37;100.00;101430.97;4976869;28;20504;-82
2020/12/02 10:22:09;;;;;;;3.73;0.93;;;;;;;5.41;100.00;101427.41;4981178;28;20490;-82
2020/12/02 10:25:12;;;;;;;5.10;1.07;;;;;;;5.45;100.00;101432.91;4981275;28;20467;-81
2020/12/02 10:27:53;;;;;;;2.73;1.00;;;;;;;5.36;100.00;101422.16;4980160;28;20457;-82
2020/12/02 10:30:26;;;;;;;4.63;1.50;;;;;;;5.49;100.00;101417.88;4969495;28;20446;-78
2020/12/02 10:33:16;;;;;;;4.87;1.23;;;;;;;5.47;100.00;101418.19;4975583;28;20455;-82
2020/12/02 10:35:44;;;;;;;2.37;0.73;;;;;;;5.52;100.00;101413.81;4985920;28;20468;-80
2020/12/02 10:38:40;;;;;;;3.83;1.40;;;;;;;5.41;100.00;101407.91;4981120;28;20495;-81
2020/12/02 10:41:34;;;;;;;2.87;0.90;;;;;;;5.35;100.00;101406.44;4971880;28;20496;-81
2020/12/02 10:44:11;;;;;;;4.90;1.50;;;;;;;5.50;100.00;101395.41;4986509;28;20508;-79
2020/12/02 10:46:50;;;;;;;3.70;0.80;;;;;;;5.55;100.00;101378.47;4970055;28;20461;-81
2020/12/02 10:49:27;;;;;;;2.90;0.90;;;;;;;5.40;100.00;101379.63;4988619;28;20592;-80
2020/12/02 10:51:55;;;;;;;3.43;1.07;;;;;;;5.52;100.00;101363.06;4974750;28;20457;-83
2020/12/02 10:54:24;;;;;;;4.27;1.30;;;;;;;5.56;100.00;101364.03;4977713;28;21015;-83
2020/12/02 10:56:55;;;;;;;5.00;1.40;;;;;;;5.44;100.00;101357.34;4961263;28;20465;-83
2020/12/02 10:59:21;;;;;;;3.23;0.63;;;;;;;5.58;100.00;101351.94;4976121;28;20437;-79
2020/12/02 11:01:48;;;;;;;3.83;0.93;;;;;;;5.44;100.00;101354.69;4956301;28;20500;-78
2020/12/02 11:04:17;;;;;;;3.60;1.13;;;;;;;5.59;100.00;101358.09;4988973;28;20548;-78
2020/12/02 11:07:04;;;;;;;4.40;1.10;;;;;;;5.68;99.92;101343.69;4960414;28;20462;-77
2020/12/02 11:09:45;;;;;;;3.40;1.10;;;;;;;5.65;99.72;101346.19;4994804;28;20856;-78
2020/12/02 11:12:11;;;;;;;6.33;1.47;;;;;;;5.72;99.53;101347.34;4996830;28;20532;-81
2020/12/02 11:15:12;;;;;;;2.53;0.90;;;;;;;5.73;99.19;101340.13;4985364;28;20450;-76
2020/12/02 11:18:07;;;;;;;5.17;1.67;;;;;;;5.78;99.54;101339.97;5004820;28;20595;-80
2020/12/02 11:20:45;;;;;;;4.97;1.40;;;;;;;5.79;99.80;101336.22;4972734;28;20441;-82
2020/12/02 11:23:28;;;;;;;2.73;0.90;;;;;;;5.72;99.55;101327.84;4971877;28;20440;-81
2020/12/02 11:26:28;;;;;;;4.03;1.20;;;;;;;5.73;98.93;101322.19;4989666;28;20449;-80
2020/12/02 11:28:54;;;;;;;4.43;1.20;;;;;;;5.57;99.75;101317.53;4976957;28;20452;-79
2020/12/02 11:31:38;;;;;;;6.00;1.70;;;;;;;5.36;100.00;101312.69;4978809;28;20461;-80
2020/12/02 11:34:38;;;;;;;4.10;1.00;;;;;;;5.59;100.00;101315.34;4951404;28;20452;-80
2020/12/02 11:37:08;;;;;;;3.13;0.90;;;;;;;5.74;100.00;101307.75;4970660;28;21025;-81
2020/12/02 11:39:47;;;;;;;5.53;1.20;;;;;;;5.92;99.83;101308.66;4971150;28;20446;-81
2020/12/02 11:42:28;;;;;;;3.67;1.30;;;;;;;5.69;98.96;101301.75;4970063;28;20498;-80
2020/12/02 11:44:58;;;;;;;2.00;0.50;;;;;;;5.76;99.30;101297.53;4967004;28;20453;-79
2020/12/02 11:47:23;;;;;;;2.80;0.80;;;;;;;5.78;99.12;101292.69;4969457;28;20465;-82
2020/12/02 11:49:54;;;;;;;2.60;1.20;;;;;;;5.77;98.49;101284.97;4950517;28;20964;-79
2020/12/02 11:52:37;;;;;;;3.60;0.93;;;;;;;5.69;99.05;101285.72;4977709;28;20929;-79
2020/12/02 11:55:11;;;;;;;4.03;1.00;;;;;;;5.81;99.45;101293.94;4958048;28;20480;-79
2020/12/02 11:57:44;;;;;;;2.77;0.87;;;;;;;5.88;98.76;101287.13;4965963;28;20481;-80